sensor_id;sensor_type;location;lat;lon;timestamp;P1;durP1;ratioP1;P2;durP2;ratioP2
3718;SDS011;1875;52.492;6.860;2023-03-23T00:01:22;13.37;;;7.47;;
3718;SDS011;1875;52.492;6.860;2023-03-23T00:03:52;15.13;;;8.70;;
3718;SDS011;1875;52.492;6.860;2023-03-23T00:06:22;12.67;;;7.50;;
3718;SDS011;1875;52.492;6.860;2023-03-23T00:08:50;15.30;;;7.70;;
3718;SDS011;1875;52.492;6.860;2023-03-23T00:11:22;13.90;;;6.80;;
3718;SDS011;1875;52.492;6.860;2023-03-23T00:13:51;16.33;;;7.53;;
3718;SDS011;1875;52.492;6.860;2023-03-23T00:16:18;13.80;;;7.70;;
3718;SDS011;1875;52.492;6.860;2023-03-23T00:18:48;13.47;;;7.47;;
3718;SDS011;1875;52.492;6.860;2023-03-23T00:21:17;12.47;;;6.83;;
3718;SDS011;1875;52.492;6.860;2023-03-23T00:23:44;10.27;;;7.87;;
3718;SDS011;1875;52.492;6.860;2023-03-23T00:26:11;12.50;;;7.43;;
3718;SDS011;1875;52.492;6.860;2023-03-23T00:28:38;13.30;;;6.83;;
3718;SDS011;1875;52.492;6.860;2023-03-23T00:31:06;15.00;;;7.13;;
3718;SDS011;1875;52.492;6.860;2023-03-23T00:33:35;9.67;;;6.33;;
3718;SDS011;1875;52.492;6.860;2023-03-23T00:36:07;11.03;;;6.63;;
3718;SDS011;1875;52.492;6.860;2023-03-23T00:38:35;12.90;;;6.30;;
3718;SDS011;1875;52.492;6.860;2023-03-23T00:41:02;14.90;;;6.30;;
3718;SDS011;1875;52.492;6.860;2023-03-23T00:43:29;14.07;;;6.20;;
3718;SDS011;1875;52.492;6.860;2023-03-23T00:45:57;9.53;;;6.30;;
3718;SDS011;1875;52.492;6.860;2023-03-23T00:48:26;13.60;;;6.30;;
3718;SDS011;1875;52.492;6.860;2023-03-23T00:50:54;9.37;;;6.10;;
3718;SDS011;1875;52.492;6.860;2023-03-23T00:53:22;10.37;;;6.33;;
3718;SDS011;1875;52.492;6.860;2023-03-23T00:55:50;12.33;;;4.93;;
3718;SDS011;1875;52.492;6.860;2023-03-23T00:58:16;15.63;;;5.93;;
3718;SDS011;1875;52.492;6.860;2023-03-23T01:00:43;10.57;;;5.33;;
3718;SDS011;1875;52.492;6.860;2023-03-23T01:03:09;10.50;;;5.70;;
3718;SDS011;1875;52.492;6.860;2023-03-23T01:05:37;10.30;;;5.77;;
3718;SDS011;1875;52.492;6.860;2023-03-23T01:08:05;8.73;;;5.13;;
3718;SDS011;1875;52.492;6.860;2023-03-23T01:10:33;8.70;;;4.63;;
3718;SDS011;1875;52.492;6.860;2023-03-23T01:13:03;13.53;;;5.67;;
3718;SDS011;1875;52.492;6.860;2023-03-23T01:15:30;11.70;;;6.17;;
3718;SDS011;1875;52.492;6.860;2023-03-23T01:17:57;9.83;;;5.23;;
3718;SDS011;1875;52.492;6.860;2023-03-23T01:20:24;8.73;;;4.57;;
3718;SDS011;1875;52.492;6.860;2023-03-23T01:22:54;10.90;;;5.20;;
3718;SDS011;1875;52.492;6.860;2023-03-23T01:25:25;8.37;;;4.87;;
3718;SDS011;1875;52.492;6.860;2023-03-23T01:27:54;9.70;;;5.30;;
3718;SDS011;1875;52.492;6.860;2023-03-23T01:30:21;9.07;;;4.93;;
3718;SDS011;1875;52.492;6.860;2023-03-23T01:32:47;12.37;;;5.33;;
3718;SDS011;1875;52.492;6.860;2023-03-23T01:35:14;11.43;;;5.77;;
3718;SDS011;1875;52.492;6.860;2023-03-23T01:37:42;12.03;;;4.77;;
3718;SDS011;1875;52.492;6.860;2023-03-23T01:40:10;6.97;;;4.83;;
3718;SDS011;1875;52.492;6.860;2023-03-23T01:42:38;8.10;;;4.47;;
3718;SDS011;1875;52.492;6.860;2023-03-23T01:47:57;8.03;;;5.23;;
3718;SDS011;1875;52.492;6.860;2023-03-23T01:50:26;10.67;;;5.60;;
3718;SDS011;1875;52.492;6.860;2023-03-23T01:52:55;8.27;;;5.10;;
3718;SDS011;1875;52.492;6.860;2023-03-23T01:55:23;7.20;;;4.93;;
3718;SDS011;1875;52.492;6.860;2023-03-23T01:57:51;8.93;;;4.83;;
3718;SDS011;1875;52.492;6.860;2023-03-23T02:00:18;10.10;;;5.07;;
3718;SDS011;1875;52.492;6.860;2023-03-23T02:02:46;14.07;;;5.27;;
3718;SDS011;1875;52.492;6.860;2023-03-23T02:05:15;8.93;;;5.00;;
3718;SDS011;1875;52.492;6.860;2023-03-23T02:07:47;6.63;;;4.90;;
3718;SDS011;1875;52.492;6.860;2023-03-23T02:10:15;9.67;;;5.37;;
3718;SDS011;1875;52.492;6.860;2023-03-23T02:12:42;7.40;;;5.10;;
3718;SDS011;1875;52.492;6.860;2023-03-23T02:15:09;8.73;;;4.90;;
3718;SDS011;1875;52.492;6.860;2023-03-23T02:17:37;7.70;;;4.70;;
3718;SDS011;1875;52.492;6.860;2023-03-23T02:20:17;6.07;;;4.87;;
3718;SDS011;1875;52.492;6.860;2023-03-23T02:25:58;8.53;;;4.40;;
3718;SDS011;1875;52.492;6.860;2023-03-23T02:31:21;7.80;;;4.00;;
3718;SDS011;1875;52.492;6.860;2023-03-23T02:33:58;10.10;;;4.80;;
3718;SDS011;1875;52.492;6.860;2023-03-23T02:36:27;7.97;;;4.70;;
3718;SDS011;1875;52.492;6.860;2023-03-23T02:38:56;10.00;;;4.67;;
3718;SDS011;1875;52.492;6.860;2023-03-23T02:41:27;6.83;;;4.77;;
3718;SDS011;1875;52.492;6.860;2023-03-23T02:43:55;7.27;;;4.93;;
3718;SDS011;1875;52.492;6.860;2023-03-23T02:46:22;10.00;;;4.90;;
3718;SDS011;1875;52.492;6.860;2023-03-23T02:48:50;7.87;;;4.53;;
3718;SDS011;1875;52.492;6.860;2023-03-23T02:51:19;7.97;;;4.47;;
3718;SDS011;1875;52.492;6.860;2023-03-23T02:53:46;7.73;;;4.23;;
3718;SDS011;1875;52.492;6.860;2023-03-23T02:56:14;7.30;;;4.23;;
3718;SDS011;1875;52.492;6.860;2023-03-23T02:58:41;6.37;;;3.77;;
3718;SDS011;1875;52.492;6.860;2023-03-23T03:01:15;7.07;;;4.23;;
3718;SDS011;1875;52.492;6.860;2023-03-23T03:04:03;4.67;;;3.63;;
3718;SDS011;1875;52.492;6.860;2023-03-23T03:06:34;10.90;;;4.27;;
3718;SDS011;1875;52.492;6.860;2023-03-23T03:09:05;6.80;;;4.10;;
3718;SDS011;1875;52.492;6.860;2023-03-23T03:11:34;4.23;;;3.50;;
3718;SDS011;1875;52.492;6.860;2023-03-23T03:14:02;8.03;;;4.10;;
3718;SDS011;1875;52.492;6.860;2023-03-23T03:16:31;5.83;;;4.00;;
3718;SDS011;1875;52.492;6.860;2023-03-23T03:19:02;8.90;;;3.90;;
3718;SDS011;1875;52.492;6.860;2023-03-23T03:21:35;8.70;;;3.87;;
3718;SDS011;1875;52.492;6.860;2023-03-23T03:24:03;5.70;;;3.30;;
3718;SDS011;1875;52.492;6.860;2023-03-23T03:26:31;8.03;;;3.43;;
3718;SDS011;1875;52.492;6.860;2023-03-23T03:28:59;5.13;;;3.47;;
3718;SDS011;1875;52.492;6.860;2023-03-23T03:31:27;6.43;;;3.67;;
3718;SDS011;1875;52.492;6.860;2023-03-23T03:33:55;4.03;;;3.47;;
3718;SDS011;1875;52.492;6.860;2023-03-23T03:36:23;8.40;;;3.70;;
3718;SDS011;1875;52.492;6.860;2023-03-23T03:38:53;6.90;;;4.03;;
3718;SDS011;1875;52.492;6.860;2023-03-23T03:41:22;5.93;;;4.03;;
3718;SDS011;1875;52.492;6.860;2023-03-23T03:43:49;5.00;;;3.90;;
3718;SDS011;1875;52.492;6.860;2023-03-23T03:46:15;5.40;;;4.50;;
3718;SDS011;1875;52.492;6.860;2023-03-23T03:48:42;10.70;;;4.40;;
3718;SDS011;1875;52.492;6.860;2023-03-23T03:51:08;6.57;;;4.20;;
3718;SDS011;1875;52.492;6.860;2023-03-23T03:53:35;7.17;;;4.13;;
3718;SDS011;1875;52.492;6.860;2023-03-23T03:56:03;10.73;;;4.20;;
3718;SDS011;1875;52.492;6.860;2023-03-23T03:58:32;6.07;;;4.13;;
3718;SDS011;1875;52.492;6.860;2023-03-23T04:01:01;5.33;;;4.13;;
3718;SDS011;1875;52.492;6.860;2023-03-23T04:03:28;6.83;;;4.60;;
3718;SDS011;1875;52.492;6.860;2023-03-23T04:05:54;9.53;;;4.53;;
3718;SDS011;1875;52.492;6.860;2023-03-23T04:08:21;10.90;;;4.83;;
3718;SDS011;1875;52.492;6.860;2023-03-23T04:10:48;7.20;;;3.97;;
3718;SDS011;1875;52.492;6.860;2023-03-23T04:13:17;8.90;;;4.50;;
3718;SDS011;1875;52.492;6.860;2023-03-23T04:15:44;6.57;;;4.00;;
3718;SDS011;1875;52.492;6.860;2023-03-23T04:18:11;7.40;;;4.20;;
3718;SDS011;1875;52.492;6.860;2023-03-23T04:20:40;8.13;;;4.40;;
3718;SDS011;1875;52.492;6.860;2023-03-23T04:23:07;7.47;;;4.13;;
3718;SDS011;1875;52.492;6.860;2023-03-23T04:25:34;7.20;;;4.50;;
3718;SDS011;1875;52.492;6.860;2023-03-23T04:28:01;7.67;;;4.90;;
3718;SDS011;1875;52.492;6.860;2023-03-23T04:30:29;7.03;;;4.40;;
3718;SDS011;1875;52.492;6.860;2023-03-23T04:32:57;9.60;;;4.37;;
3718;SDS011;1875;52.492;6.860;2023-03-23T04:35:25;7.23;;;4.00;;
3718;SDS011;1875;52.492;6.860;2023-03-23T04:37:54;9.13;;;3.90;;
3718;SDS011;1875;52.492;6.860;2023-03-23T04:40:21;9.50;;;3.90;;
3718;SDS011;1875;52.492;6.860;2023-03-23T04:42:48;9.67;;;4.63;;
3718;SDS011;1875;52.492;6.860;2023-03-23T04:45:18;7.93;;;4.00;;
3718;SDS011;1875;52.492;6.860;2023-03-23T04:47:48;8.03;;;3.97;;
3718;SDS011;1875;52.492;6.860;2023-03-23T04:50:18;4.90;;;3.93;;
3718;SDS011;1875;52.492;6.860;2023-03-23T04:52:46;10.07;;;4.33;;
3718;SDS011;1875;52.492;6.860;2023-03-23T04:55:13;12.13;;;4.10;;
3718;SDS011;1875;52.492;6.860;2023-03-23T04:57:40;10.60;;;4.43;;
3718;SDS011;1875;52.492;6.860;2023-03-23T05:00:07;6.47;;;4.83;;
3718;SDS011;1875;52.492;6.860;2023-03-23T05:02:39;7.47;;;3.80;;
3718;SDS011;1875;52.492;6.860;2023-03-23T05:05:08;4.87;;;4.17;;
3718;SDS011;1875;52.492;6.860;2023-03-23T05:07:36;6.33;;;4.00;;
3718;SDS011;1875;52.492;6.860;2023-03-23T05:10:03;6.03;;;4.33;;
3718;SDS011;1875;52.492;6.860;2023-03-23T05:12:30;8.27;;;4.27;;
3718;SDS011;1875;52.492;6.860;2023-03-23T05:14:57;6.90;;;4.43;;
3718;SDS011;1875;52.492;6.860;2023-03-23T05:17:24;7.20;;;4.90;;
3718;SDS011;1875;52.492;6.860;2023-03-23T05:19:50;8.53;;;4.60;;
3718;SDS011;1875;52.492;6.860;2023-03-23T05:22:19;8.53;;;4.67;;
3718;SDS011;1875;52.492;6.860;2023-03-23T05:24:46;7.07;;;4.43;;
3718;SDS011;1875;52.492;6.860;2023-03-23T05:27:16;6.97;;;4.53;;
3718;SDS011;1875;52.492;6.860;2023-03-23T05:29:43;7.20;;;4.70;;
3718;SDS011;1875;52.492;6.860;2023-03-23T05:32:11;7.50;;;4.27;;
3718;SDS011;1875;52.492;6.860;2023-03-23T05:34:37;7.87;;;4.60;;
3718;SDS011;1875;52.492;6.860;2023-03-23T05:37:04;9.10;;;4.73;;
3718;SDS011;1875;52.492;6.860;2023-03-23T05:39:32;7.87;;;4.43;;
3718;SDS011;1875;52.492;6.860;2023-03-23T05:41:59;4.97;;;4.10;;
3718;SDS011;1875;52.492;6.860;2023-03-23T05:44:26;8.93;;;4.33;;
3718;SDS011;1875;52.492;6.860;2023-03-23T05:46:52;6.77;;;4.30;;
3718;SDS011;1875;52.492;6.860;2023-03-23T05:49:19;8.00;;;4.17;;
3718;SDS011;1875;52.492;6.860;2023-03-23T05:51:46;6.33;;;3.77;;
3718;SDS011;1875;52.492;6.860;2023-03-23T05:54:13;6.53;;;3.93;;
3718;SDS011;1875;52.492;6.860;2023-03-23T05:56:41;7.43;;;3.60;;
3718;SDS011;1875;52.492;6.860;2023-03-23T05:59:08;8.13;;;4.40;;
3718;SDS011;1875;52.492;6.860;2023-03-23T06:01:36;7.03;;;3.70;;
3718;SDS011;1875;52.492;6.860;2023-03-23T06:04:02;11.80;;;4.97;;
3718;SDS011;1875;52.492;6.860;2023-03-23T06:06:29;5.73;;;4.00;;
3718;SDS011;1875;52.492;6.860;2023-03-23T06:08:57;8.13;;;3.83;;
3718;SDS011;1875;52.492;6.860;2023-03-23T06:11:25;6.93;;;3.50;;
3718;SDS011;1875;52.492;6.860;2023-03-23T06:13:53;9.50;;;4.27;;
3718;SDS011;1875;52.492;6.860;2023-03-23T06:16:19;8.73;;;4.50;;
3718;SDS011;1875;52.492;6.860;2023-03-23T06:18:46;6.33;;;3.40;;
3718;SDS011;1875;52.492;6.860;2023-03-23T06:21:13;8.27;;;3.70;;
3718;SDS011;1875;52.492;6.860;2023-03-23T06:23:40;6.03;;;3.50;;
3718;SDS011;1875;52.492;6.860;2023-03-23T06:26:11;9.50;;;3.47;;
3718;SDS011;1875;52.492;6.860;2023-03-23T06:28:39;5.97;;;3.20;;
3718;SDS011;1875;52.492;6.860;2023-03-23T06:31:07;9.57;;;4.10;;
3718;SDS011;1875;52.492;6.860;2023-03-23T06:33:34;10.23;;;3.77;;
3718;SDS011;1875;52.492;6.860;2023-03-23T06:36:02;7.00;;;3.30;;
3718;SDS011;1875;52.492;6.860;2023-03-23T06:38:30;5.07;;;3.60;;
3718;SDS011;1875;52.492;6.860;2023-03-23T06:40:57;5.07;;;3.07;;
3718;SDS011;1875;52.492;6.860;2023-03-23T06:43:24;11.20;;;4.10;;
3718;SDS011;1875;52.492;6.860;2023-03-23T06:45:51;8.93;;;3.33;;
3718;SDS011;1875;52.492;6.860;2023-03-23T06:48:19;4.53;;;2.10;;
3718;SDS011;1875;52.492;6.860;2023-03-23T06:50:45;3.00;;;1.30;;
3718;SDS011;1875;52.492;6.860;2023-03-23T06:53:12;4.20;;;1.50;;
3718;SDS011;1875;52.492;6.860;2023-03-23T06:55:42;8.13;;;1.90;;
3718;SDS011;1875;52.492;6.860;2023-03-23T06:58:09;4.80;;;1.70;;
3718;SDS011;1875;52.492;6.860;2023-03-23T07:00:36;8.03;;;1.97;;
3718;SDS011;1875;52.492;6.860;2023-03-23T07:03:03;9.80;;;2.43;;
3718;SDS011;1875;52.492;6.860;2023-03-23T07:05:31;10.83;;;3.23;;
3718;SDS011;1875;52.492;6.860;2023-03-23T07:07:58;4.63;;;2.00;;
3718;SDS011;1875;52.492;6.860;2023-03-23T07:10:25;8.37;;;2.67;;
3718;SDS011;1875;52.492;6.860;2023-03-23T07:12:51;6.17;;;2.63;;
3718;SDS011;1875;52.492;6.860;2023-03-23T07:15:18;11.13;;;2.87;;
3718;SDS011;1875;52.492;6.860;2023-03-23T07:17:46;9.67;;;3.30;;
3718;SDS011;1875;52.492;6.860;2023-03-23T07:20:13;9.07;;;3.07;;
3718;SDS011;1875;52.492;6.860;2023-03-23T07:22:42;7.47;;;2.40;;
3718;SDS011;1875;52.492;6.860;2023-03-23T07:25:08;10.60;;;2.57;;
3718;SDS011;1875;52.492;6.860;2023-03-23T07:27:35;10.27;;;3.20;;
3718;SDS011;1875;52.492;6.860;2023-03-23T07:30:03;10.30;;;3.10;;
3718;SDS011;1875;52.492;6.860;2023-03-23T07:32:30;11.40;;;3.17;;
3718;SDS011;1875;52.492;6.860;2023-03-23T07:34:56;17.87;;;3.23;;
3718;SDS011;1875;52.492;6.860;2023-03-23T07:37:23;14.70;;;3.77;;
3718;SDS011;1875;52.492;6.860;2023-03-23T07:39:51;6.87;;;2.80;;
3718;SDS011;1875;52.492;6.860;2023-03-23T07:42:18;14.17;;;3.93;;
3718;SDS011;1875;52.492;6.860;2023-03-23T07:44:45;10.70;;;3.60;;
3718;SDS011;1875;52.492;6.860;2023-03-23T07:47:11;7.27;;;3.10;;
3718;SDS011;1875;52.492;6.860;2023-03-23T07:49:38;7.77;;;2.90;;
3718;SDS011;1875;52.492;6.860;2023-03-23T07:52:05;6.37;;;2.90;;
3718;SDS011;1875;52.492;6.860;2023-03-23T07:54:32;9.73;;;3.87;;
3718;SDS011;1875;52.492;6.860;2023-03-23T07:57:00;6.73;;;3.20;;
3718;SDS011;1875;52.492;6.860;2023-03-23T07:59:27;8.57;;;3.07;;
3718;SDS011;1875;52.492;6.860;2023-03-23T08:01:54;10.77;;;3.00;;
3718;SDS011;1875;52.492;6.860;2023-03-23T08:04:23;9.33;;;3.40;;
3718;SDS011;1875;52.492;6.860;2023-03-23T08:06:49;13.77;;;3.30;;
3718;SDS011;1875;52.492;6.860;2023-03-23T08:09:16;9.07;;;2.43;;
3718;SDS011;1875;52.492;6.860;2023-03-23T08:11:43;11.17;;;3.43;;
3718;SDS011;1875;52.492;6.860;2023-03-23T08:14:11;7.57;;;2.57;;
3718;SDS011;1875;52.492;6.860;2023-03-23T08:16:37;9.10;;;3.20;;
3718;SDS011;1875;52.492;6.860;2023-03-23T08:19:04;8.37;;;2.67;;
3718;SDS011;1875;52.492;6.860;2023-03-23T08:21:31;12.50;;;2.70;;
3718;SDS011;1875;52.492;6.860;2023-03-23T08:23:58;7.30;;;2.63;;
3718;SDS011;1875;52.492;6.860;2023-03-23T08:26:25;5.67;;;2.57;;
3718;SDS011;1875;52.492;6.860;2023-03-23T08:28:51;11.60;;;3.17;;
3718;SDS011;1875;52.492;6.860;2023-03-23T08:31:19;9.47;;;3.33;;
3718;SDS011;1875;52.492;6.860;2023-03-23T08:33:46;8.80;;;2.73;;
3718;SDS011;1875;52.492;6.860;2023-03-23T08:36:13;8.87;;;2.60;;
3718;SDS011;1875;52.492;6.860;2023-03-23T08:38:39;4.13;;;2.20;;
3718;SDS011;1875;52.492;6.860;2023-03-23T08:41:06;13.80;;;3.80;;
3718;SDS011;1875;52.492;6.860;2023-03-23T08:43:34;10.43;;;4.13;;
3718;SDS011;1875;52.492;6.860;2023-03-23T08:46:01;10.23;;;3.87;;
3718;SDS011;1875;52.492;6.860;2023-03-23T08:48:33;14.67;;;3.40;;
3718;SDS011;1875;52.492;6.860;2023-03-23T08:51:00;9.23;;;3.43;;
3718;SDS011;1875;52.492;6.860;2023-03-23T08:53:27;7.17;;;3.03;;
3718;SDS011;1875;52.492;6.860;2023-03-23T08:55:55;9.03;;;2.90;;
3718;SDS011;1875;52.492;6.860;2023-03-23T08:58:22;5.53;;;2.80;;
3718;SDS011;1875;52.492;6.860;2023-03-23T09:00:49;12.33;;;3.63;;
3718;SDS011;1875;52.492;6.860;2023-03-23T09:03:15;13.93;;;4.40;;
3718;SDS011;1875;52.492;6.860;2023-03-23T09:05:44;10.33;;;3.43;;
3718;SDS011;1875;52.492;6.860;2023-03-23T09:08:11;14.47;;;4.03;;
3718;SDS011;1875;52.492;6.860;2023-03-23T09:10:38;8.53;;;3.13;;
3718;SDS011;1875;52.492;6.860;2023-03-23T09:13:05;13.93;;;3.57;;
3718;SDS011;1875;52.492;6.860;2023-03-23T09:15:32;7.13;;;3.33;;
3718;SDS011;1875;52.492;6.860;2023-03-23T09:17:59;10.27;;;4.50;;
3718;SDS011;1875;52.492;6.860;2023-03-23T09:20:26;10.43;;;4.00;;
3718;SDS011;1875;52.492;6.860;2023-03-23T09:22:55;10.83;;;4.07;;
3718;SDS011;1875;52.492;6.860;2023-03-23T09:25:25;10.17;;;3.77;;
3718;SDS011;1875;52.492;6.860;2023-03-23T09:27:53;13.97;;;4.17;;
3718;SDS011;1875;52.492;6.860;2023-03-23T09:30:22;9.57;;;3.70;;
3718;SDS011;1875;52.492;6.860;2023-03-23T09:32:49;9.87;;;3.93;;
3718;SDS011;1875;52.492;6.860;2023-03-23T09:35:16;13.17;;;3.83;;
3718;SDS011;1875;52.492;6.860;2023-03-23T09:37:43;6.53;;;3.17;;
3718;SDS011;1875;52.492;6.860;2023-03-23T09:40:13;8.90;;;3.20;;
3718;SDS011;1875;52.492;6.860;2023-03-23T09:42:59;13.60;;;3.80;;
3718;SDS011;1875;52.492;6.860;2023-03-23T09:45:37;10.37;;;3.53;;
3718;SDS011;1875;52.492;6.860;2023-03-23T09:48:13;8.60;;;4.00;;
3718;SDS011;1875;52.492;6.860;2023-03-23T09:50:50;15.17;;;4.27;;
3718;SDS011;1875;52.492;6.860;2023-03-23T09:53:21;8.43;;;3.77;;
3718;SDS011;1875;52.492;6.860;2023-03-23T09:55:50;11.13;;;3.87;;
3718;SDS011;1875;52.492;6.860;2023-03-23T09:58:18;13.27;;;3.80;;
3718;SDS011;1875;52.492;6.860;2023-03-23T10:00:51;7.77;;;3.20;;
3718;SDS011;1875;52.492;6.860;2023-03-23T10:03:21;8.07;;;3.30;;
3718;SDS011;1875;52.492;6.860;2023-03-23T10:05:52;7.20;;;3.07;;
3718;SDS011;1875;52.492;6.860;2023-03-23T10:08:20;12.03;;;2.80;;
3718;SDS011;1875;52.492;6.860;2023-03-23T10:10:52;8.80;;;2.40;;
3718;SDS011;1875;52.492;6.860;2023-03-23T10:13:30;9.23;;;2.77;;
3718;SDS011;1875;52.492;6.860;2023-03-23T10:16:08;7.53;;;2.13;;
3718;SDS011;1875;52.492;6.860;2023-03-23T10:18:37;11.53;;;2.50;;
3718;SDS011;1875;52.492;6.860;2023-03-23T10:21:11;7.27;;;2.40;;
3718;SDS011;1875;52.492;6.860;2023-03-23T10:23:48;5.33;;;2.20;;
3718;SDS011;1875;52.492;6.860;2023-03-23T10:26:28;8.03;;;2.67;;
3718;SDS011;1875;52.492;6.860;2023-03-23T10:28:59;8.33;;;2.60;;
3718;SDS011;1875;52.492;6.860;2023-03-23T10:31:31;7.83;;;2.13;;
3718;SDS011;1875;52.492;6.860;2023-03-23T10:34:01;7.93;;;2.60;;
3718;SDS011;1875;52.492;6.860;2023-03-23T10:36:34;6.37;;;1.90;;
3718;SDS011;1875;52.492;6.860;2023-03-23T10:39:04;7.50;;;2.60;;
3718;SDS011;1875;52.492;6.860;2023-03-23T10:41:37;8.93;;;3.37;;
3718;SDS011;1875;52.492;6.860;2023-03-23T10:44:08;7.30;;;2.33;;
3718;SDS011;1875;52.492;6.860;2023-03-23T10:46:41;6.17;;;2.10;;
3718;SDS011;1875;52.492;6.860;2023-03-23T10:49:14;10.40;;;2.57;;
3718;SDS011;1875;52.492;6.860;2023-03-23T10:51:43;6.70;;;2.33;;
3718;SDS011;1875;52.492;6.860;2023-03-23T10:54:24;16.33;;;2.67;;
3718;SDS011;1875;52.492;6.860;2023-03-23T10:56:53;8.03;;;2.27;;
3718;SDS011;1875;52.492;6.860;2023-03-23T10:59:21;9.40;;;2.77;;
3718;SDS011;1875;52.492;6.860;2023-03-23T11:01:55;9.27;;;2.40;;
3718;SDS011;1875;52.492;6.860;2023-03-23T11:04:24;9.17;;;2.83;;
3718;SDS011;1875;52.492;6.860;2023-03-23T11:06:52;8.97;;;2.47;;
3718;SDS011;1875;52.492;6.860;2023-03-23T11:09:21;9.07;;;2.40;;
3718;SDS011;1875;52.492;6.860;2023-03-23T11:12:01;11.03;;;2.53;;
3718;SDS011;1875;52.492;6.860;2023-03-23T11:14:29;6.60;;;2.57;;
3718;SDS011;1875;52.492;6.860;2023-03-23T11:16:56;13.63;;;2.70;;
3718;SDS011;1875;52.492;6.860;2023-03-23T11:19:26;8.30;;;2.40;;
3718;SDS011;1875;52.492;6.860;2023-03-23T11:21:54;8.07;;;2.37;;
3718;SDS011;1875;52.492;6.860;2023-03-23T11:24:25;15.30;;;2.60;;
3718;SDS011;1875;52.492;6.860;2023-03-23T11:26:52;17.63;;;4.07;;
3718;SDS011;1875;52.492;6.860;2023-03-23T11:29:21;16.30;;;3.00;;
3718;SDS011;1875;52.492;6.860;2023-03-23T11:31:49;11.17;;;2.73;;
3718;SDS011;1875;52.492;6.860;2023-03-23T11:34:18;10.53;;;2.53;;
3718;SDS011;1875;52.492;6.860;2023-03-23T11:36:47;11.03;;;2.10;;
3718;SDS011;1875;52.492;6.860;2023-03-23T11:39:20;9.27;;;2.40;;
3718;SDS011;1875;52.492;6.860;2023-03-23T11:41:47;7.97;;;2.27;;
3718;SDS011;1875;52.492;6.860;2023-03-23T11:44:14;6.13;;;1.97;;
3718;SDS011;1875;52.492;6.860;2023-03-23T11:46:45;9.80;;;2.57;;
3718;SDS011;1875;52.492;6.860;2023-03-23T11:49:18;9.77;;;2.33;;
3718;SDS011;1875;52.492;6.860;2023-03-23T11:51:49;9.47;;;2.63;;
3718;SDS011;1875;52.492;6.860;2023-03-23T11:54:19;10.33;;;2.30;;
3718;SDS011;1875;52.492;6.860;2023-03-23T11:56:59;8.87;;;2.37;;
3718;SDS011;1875;52.492;6.860;2023-03-23T11:59:26;9.70;;;2.07;;
3718;SDS011;1875;52.492;6.860;2023-03-23T12:01:59;8.77;;;2.50;;
3718;SDS011;1875;52.492;6.860;2023-03-23T12:04:33;10.33;;;2.63;;
3718;SDS011;1875;52.492;6.860;2023-03-23T12:07:13;14.63;;;2.70;;
3718;SDS011;1875;52.492;6.860;2023-03-23T12:10:02;12.80;;;3.00;;
3718;SDS011;1875;52.492;6.860;2023-03-23T12:12:38;16.33;;;2.87;;
3718;SDS011;1875;52.492;6.860;2023-03-23T12:15:13;7.37;;;2.50;;
3718;SDS011;1875;52.492;6.860;2023-03-23T12:17:48;8.73;;;2.17;;
3718;SDS011;1875;52.492;6.860;2023-03-23T12:20:20;8.87;;;2.07;;
3718;SDS011;1875;52.492;6.860;2023-03-23T12:23:00;12.93;;;2.80;;
3718;SDS011;1875;52.492;6.860;2023-03-23T12:25:37;9.37;;;2.40;;
3718;SDS011;1875;52.492;6.860;2023-03-23T12:28:14;13.07;;;2.80;;
3718;SDS011;1875;52.492;6.860;2023-03-23T12:30:46;12.50;;;3.00;;
3718;SDS011;1875;52.492;6.860;2023-03-23T12:33:20;9.00;;;3.10;;
3718;SDS011;1875;52.492;6.860;2023-03-23T12:36:01;10.00;;;2.53;;
3718;SDS011;1875;52.492;6.860;2023-03-23T12:38:45;10.90;;;2.40;;
3718;SDS011;1875;52.492;6.860;2023-03-23T12:41:23;10.90;;;2.53;;
3718;SDS011;1875;52.492;6.860;2023-03-23T12:43:58;8.60;;;2.13;;
3718;SDS011;1875;52.492;6.860;2023-03-23T12:46:33;14.63;;;2.90;;
3718;SDS011;1875;52.492;6.860;2023-03-23T12:49:14;8.87;;;2.10;;
3718;SDS011;1875;52.492;6.860;2023-03-23T12:51:45;7.40;;;2.20;;
3718;SDS011;1875;52.492;6.860;2023-03-23T12:54:19;9.57;;;2.33;;
3718;SDS011;1875;52.492;6.860;2023-03-23T12:56:51;10.37;;;2.27;;
3718;SDS011;1875;52.492;6.860;2023-03-23T12:59:21;10.23;;;2.70;;
3718;SDS011;1875;52.492;6.860;2023-03-23T13:01:52;7.43;;;2.20;;
3718;SDS011;1875;52.492;6.860;2023-03-23T13:04:27;7.17;;;1.97;;
3718;SDS011;1875;52.492;6.860;2023-03-23T13:06:59;13.07;;;2.90;;
3718;SDS011;1875;52.492;6.860;2023-03-23T13:09:31;11.13;;;2.73;;
3718;SDS011;1875;52.492;6.860;2023-03-23T13:12:02;8.77;;;2.30;;
3718;SDS011;1875;52.492;6.860;2023-03-23T13:14:34;9.67;;;2.20;;
3718;SDS011;1875;52.492;6.860;2023-03-23T13:17:07;11.30;;;2.30;;
3718;SDS011;1875;52.492;6.860;2023-03-23T13:19:53;10.40;;;2.93;;
3718;SDS011;1875;52.492;6.860;2023-03-23T13:22:42;10.27;;;2.60;;
3718;SDS011;1875;52.492;6.860;2023-03-23T13:25:13;9.93;;;2.20;;
3718;SDS011;1875;52.492;6.860;2023-03-23T13:27:45;11.70;;;2.20;;
3718;SDS011;1875;52.492;6.860;2023-03-23T13:30:22;16.07;;;3.13;;
3718;SDS011;1875;52.492;6.860;2023-03-23T13:32:49;14.93;;;2.40;;
3718;SDS011;1875;52.492;6.860;2023-03-23T13:35:18;8.23;;;3.03;;
3718;SDS011;1875;52.492;6.860;2023-03-23T13:37:47;9.07;;;2.70;;
3718;SDS011;1875;52.492;6.860;2023-03-23T13:40:18;9.93;;;2.37;;
3718;SDS011;1875;52.492;6.860;2023-03-23T13:42:50;8.07;;;3.00;;
3718;SDS011;1875;52.492;6.860;2023-03-23T13:45:20;12.27;;;2.50;;
3718;SDS011;1875;52.492;6.860;2023-03-23T13:47:49;9.90;;;2.07;;
3718;SDS011;1875;52.492;6.860;2023-03-23T13:53:15;8.57;;;2.30;;
3718;SDS011;1875;52.492;6.860;2023-03-23T13:55:48;9.00;;;2.23;;
3718;SDS011;1875;52.492;6.860;2023-03-23T13:58:23;3.73;;;1.90;;
3718;SDS011;1875;52.492;6.860;2023-03-23T14:01:01;8.97;;;1.90;;
3718;SDS011;1875;52.492;6.860;2023-03-23T14:03:36;11.77;;;2.23;;
3718;SDS011;1875;52.492;6.860;2023-03-23T14:06:08;5.67;;;1.73;;
3718;SDS011;1875;52.492;6.860;2023-03-23T14:08:41;4.37;;;1.40;;
3718;SDS011;1875;52.492;6.860;2023-03-23T14:11:13;6.93;;;1.70;;
3718;SDS011;1875;52.492;6.860;2023-03-23T14:13:43;5.07;;;1.50;;
3718;SDS011;1875;52.492;6.860;2023-03-23T14:16:16;6.13;;;1.60;;
3718;SDS011;1875;52.492;6.860;2023-03-23T14:18:49;5.00;;;1.63;;
3718;SDS011;1875;52.492;6.860;2023-03-23T14:21:24;7.37;;;1.80;;
3718;SDS011;1875;52.492;6.860;2023-03-23T14:23:59;8.23;;;1.50;;
3718;SDS011;1875;52.492;6.860;2023-03-23T14:26:32;7.03;;;2.00;;
3718;SDS011;1875;52.492;6.860;2023-03-23T14:29:00;7.50;;;1.80;;
3718;SDS011;1875;52.492;6.860;2023-03-23T14:31:27;7.70;;;2.00;;
3718;SDS011;1875;52.492;6.860;2023-03-23T14:33:55;7.80;;;2.03;;
3718;SDS011;1875;52.492;6.860;2023-03-23T14:36:25;7.90;;;2.53;;
3718;SDS011;1875;52.492;6.860;2023-03-23T14:38:58;9.27;;;2.37;;
3718;SDS011;1875;52.492;6.860;2023-03-23T14:41:28;9.60;;;2.37;;
3718;SDS011;1875;52.492;6.860;2023-03-23T14:43:56;7.47;;;2.00;;
3718;SDS011;1875;52.492;6.860;2023-03-23T14:46:22;7.97;;;2.27;;
3718;SDS011;1875;52.492;6.860;2023-03-23T14:48:50;8.57;;;2.40;;
3718;SDS011;1875;52.492;6.860;2023-03-23T14:51:18;8.50;;;1.90;;
3718;SDS011;1875;52.492;6.860;2023-03-23T14:53:47;8.23;;;2.00;;
3718;SDS011;1875;52.492;6.860;2023-03-23T14:56:17;6.70;;;2.00;;
3718;SDS011;1875;52.492;6.860;2023-03-23T14:58:44;8.03;;;1.67;;
3718;SDS011;1875;52.492;6.860;2023-03-23T15:01:12;4.37;;;1.80;;
3718;SDS011;1875;52.492;6.860;2023-03-23T15:03:42;7.33;;;2.13;;
3718;SDS011;1875;52.492;6.860;2023-03-23T15:06:12;8.07;;;2.10;;
3718;SDS011;1875;52.492;6.860;2023-03-23T15:08:41;8.63;;;2.47;;
3718;SDS011;1875;52.492;6.860;2023-03-23T15:11:11;8.13;;;1.70;;
3718;SDS011;1875;52.492;6.860;2023-03-23T15:13:42;8.23;;;2.17;;
3718;SDS011;1875;52.492;6.860;2023-03-23T15:16:12;5.43;;;1.93;;
3718;SDS011;1875;52.492;6.860;2023-03-23T15:18:41;5.30;;;1.97;;
3718;SDS011;1875;52.492;6.860;2023-03-23T15:21:19;5.53;;;1.87;;
3718;SDS011;1875;52.492;6.860;2023-03-23T15:23:48;9.80;;;2.07;;
3718;SDS011;1875;52.492;6.860;2023-03-23T15:26:24;4.63;;;2.00;;
3718;SDS011;1875;52.492;6.860;2023-03-23T15:31:46;8.47;;;2.03;;
3718;SDS011;1875;52.492;6.860;2023-03-23T15:34:19;6.13;;;1.70;;
3718;SDS011;1875;52.492;6.860;2023-03-23T15:36:52;11.20;;;2.00;;
3718;SDS011;1875;52.492;6.860;2023-03-23T15:39:21;5.73;;;1.67;;